Terminal Aerodrome Forecast
Issued by NWS Houston/Galveston TX

Home | Current Version | Previous Version | Text Only | Print | Product List | Glossary On
Versions: 1 2 3 4 5 6 7 8 9 10 11 12 13 14 15 16 17 18 19 20 21 22 23 24 25 26
000
FTUS44 KHGX 260520
TAFHOU
TAF
KHOU 260520Z 2606/2706 15006KT P6SM FEW025 BKN250
     FM261000 15002KT P6SM SCT015
     FM261500 18006KT P6SM FEW025 BKN250
     FM261700 17007KT P6SM VCSH SCT040 SCT250
     FM262000 16008KT P6SM VCTS SCT050CB BKN250
     FM270200 16005KT P6SM FEW040 SCT250=

USA.gov is the U.S. government's official web portal to all federal, state and local government web resources and services.